createdAt,value
2019-01-26T00:01:00.241Z,76.20
2019-01-26T00:03:28.464Z,76.40
2019-01-26T00:05:56.723Z,77.00
2019-01-26T00:08:24.962Z,77.40
2019-01-26T00:10:53.220Z,77.30
2019-01-26T00:13:21.467Z,77.00
2019-01-26T00:15:49.705Z,78.00
2019-01-26T00:18:17.960Z,78.30
2019-01-26T00:20:46.224Z,78.10
2019-01-26T00:23:14.466Z,78.50
2019-01-26T00:25:42.733Z,79.30
2019-01-26T00:28:10.976Z,80.00
2019-01-26T00:30:39.212Z,80.80
2019-01-26T00:33:07.462Z,80.80
2019-01-26T00:35:35.706Z,80.70
2019-01-26T00:38:04.222Z,80.50
2019-01-26T00:40:32.466Z,80.90
2019-01-26T00:43:00.714Z,80.60
2019-01-26T00:45:28.961Z,79.90
2019-01-26T00:47:57.200Z,80.20
2019-01-26T00:50:25.482Z,79.90
2019-01-26T00:52:53.727Z,80.20
2019-01-26T00:55:21.987Z,78.70
2019-01-26T00:57:50.229Z,79.40
2019-01-26T01:00:22.270Z,79.30
2019-01-26T01:02:50.517Z,78.70
2019-01-26T01:05:18.768Z,79.80
2019-01-26T01:07:47.032Z,78.90
2019-01-26T01:10:17.389Z,78.60
2019-01-26T01:12:45.662Z,79.10
2019-01-26T01:15:23.226Z,79.40
2019-01-26T01:17:51.960Z,80.20
2019-01-26T01:20:20.279Z,81.40
2019-01-26T01:22:48.525Z,82.40
2019-01-26T01:25:16.762Z,83.30
2019-01-26T01:27:45.029Z,85.50
2019-01-26T01:30:16.527Z,86.50
2019-01-26T01:32:44.755Z,87.30
2019-01-26T01:35:13.017Z,88.40
2019-01-26T01:37:41.277Z,89.60
2019-01-26T01:40:11.737Z,90.10
2019-01-26T01:42:40.633Z,90.60
2019-01-26T01:45:12.308Z,90.30
2019-01-26T01:47:40.594Z,90.40
2019-01-26T01:50:09.821Z,90.30
2019-01-26T01:52:38.140Z,90.30
2019-01-26T01:55:09.115Z,90.20
2019-01-26T01:57:37.353Z,90.80
2019-01-26T02:00:11.540Z,90.80
2019-01-26T02:02:39.784Z,95.20
2019-01-26T02:05:08.115Z,95.60
2019-01-26T02:07:36.359Z,94.80
2019-01-26T02:10:07.688Z,93.30
2019-01-26T02:12:35.937Z,90.50
2019-01-26T02:15:05.510Z,90.30
2019-01-26T02:17:33.760Z,90.40
2019-01-26T02:20:01.997Z,90.20
2019-01-26T02:22:30.242Z,90.50
2019-01-26T02:24:58.488Z,90.40
2019-01-26T02:27:26.735Z,90.50
2019-01-26T02:29:54.996Z,90.80
2019-01-26T02:32:23.255Z,91.00
2019-01-26T02:34:51.531Z,91.20
2019-01-26T02:37:19.775Z,91.20
2019-01-26T02:39:48.028Z,91.40
2019-01-26T02:42:16.253Z,91.80
2019-01-26T02:44:44.557Z,91.80
2019-01-26T02:47:12.849Z,91.70
2019-01-26T02:49:41.106Z,91.80
2019-01-26T02:52:09.409Z,91.90
2019-01-26T02:54:37.683Z,91.90
2019-01-26T02:57:05.914Z,92.00
2019-01-26T02:59:34.187Z,92.60
2019-01-26T03:02:02.425Z,91.60
2019-01-26T03:04:30.685Z,91.80
2019-01-26T03:06:58.920Z,91.70
2019-01-26T03:09:27.159Z,91.90
2019-01-26T03:11:55.428Z,92.00
2019-01-26T03:14:23.659Z,92.00
2019-01-26T03:16:51.899Z,92.20
2019-01-26T03:19:20.148Z,92.10
2019-01-26T03:21:48.397Z,92.00
2019-01-26T03:24:16.649Z,91.80
2019-01-26T03:26:44.882Z,91.90
2019-01-26T03:29:13.123Z,91.80
2019-01-26T03:31:41.387Z,91.50
2019-01-26T03:34:09.610Z,91.70
2019-01-26T03:36:37.898Z,91.70
2019-01-26T03:39:07.499Z,91.90
2019-01-26T03:41:35.741Z,92.00
2019-01-26T03:44:03.971Z,92.00
2019-01-26T03:46:32.223Z,92.20
2019-01-26T03:49:00.472Z,92.30
2019-01-26T03:51:28.713Z,92.10
2019-01-26T03:53:56.981Z,92.40
2019-01-26T03:56:25.294Z,92.30
2019-01-26T03:58:53.553Z,92.60
2019-01-26T04:01:21.785Z,92.60
2019-01-26T04:03:50.070Z,92.60
2019-01-26T04:06:18.310Z,92.60
2019-01-26T04:08:46.581Z,93.20
2019-01-26T04:11:14.807Z,93.50
2019-01-26T04:13:43.055Z,93.80
2019-01-26T04:16:11.311Z,93.80
2019-01-26T04:18:39.577Z,94.10
2019-01-26T04:21:07.824Z,94.10
2019-01-26T04:23:36.075Z,94.10
2019-01-26T04:26:04.333Z,94.20
2019-01-26T04:28:32.589Z,94.10
2019-01-26T04:31:00.834Z,94.00
2019-01-26T04:33:29.073Z,94.10
2019-01-26T04:35:57.326Z,94.00
2019-01-26T04:38:25.558Z,94.00
2019-01-26T04:40:53.806Z,94.10
2019-01-26T04:43:22.041Z,93.90
2019-01-26T04:45:50.278Z,93.90
2019-01-26T04:48:18.543Z,93.90
2019-01-26T04:50:46.790Z,93.80
2019-01-26T04:53:15.058Z,93.60
2019-01-26T04:55:43.287Z,93.10
2019-01-26T04:58:11.541Z,92.90
2019-01-26T05:00:39.798Z,92.80
2019-01-26T05:03:08.097Z,93.00
2019-01-26T05:05:36.338Z,93.10
2019-01-26T05:08:04.587Z,93.30
2019-01-26T05:10:32.842Z,93.10
2019-01-26T05:13:01.095Z,93.20
2019-01-26T05:15:29.356Z,92.90
2019-01-26T05:17:57.603Z,92.80
2019-01-26T05:20:25.838Z,92.80
2019-01-26T05:22:54.088Z,93.00
2019-01-26T05:25:22.355Z,92.80
2019-01-26T05:27:50.595Z,93.00
2019-01-26T05:30:21.404Z,93.00
2019-01-26T05:32:49.638Z,93.00
2019-01-26T05:35:17.868Z,92.80
2019-01-26T05:37:46.143Z,93.00
2019-01-26T05:40:16.368Z,93.00
2019-01-26T05:42:44.633Z,92.80
2019-01-26T05:45:15.326Z,92.50
2019-01-26T05:47:49.096Z,92.40
2019-01-26T05:50:16.810Z,92.30
2019-01-26T05:52:45.127Z,92.30
2019-01-26T05:55:13.352Z,92.80
2019-01-26T05:57:41.607Z,92.70
2019-01-26T06:00:13.175Z,92.30
2019-01-26T06:02:41.414Z,92.00
2019-01-26T06:05:09.659Z,92.00
2019-01-26T06:07:37.919Z,92.20
2019-01-26T06:10:07.399Z,92.00
2019-01-26T06:12:35.630Z,92.30
2019-01-26T06:15:05.551Z,92.30
2019-01-26T06:17:33.790Z,92.00
2019-01-26T06:20:02.020Z,91.90
2019-01-26T06:22:30.262Z,92.10
2019-01-26T06:24:58.510Z,91.90
2019-01-26T06:27:26.774Z,91.60
2019-01-26T06:29:54.996Z,91.70
2019-01-26T06:32:23.246Z,91.80
2019-01-26T06:34:51.484Z,91.90
2019-01-26T06:37:19.780Z,91.90
2019-01-26T06:39:48.011Z,91.90
2019-01-26T06:42:16.294Z,91.70
2019-01-26T06:44:44.538Z,91.70
2019-01-26T06:47:12.793Z,92.00
2019-01-26T06:49:41.021Z,91.60
2019-01-26T06:52:09.269Z,91.40
2019-01-26T06:54:37.523Z,91.70
2019-01-26T06:57:05.763Z,91.60
2019-01-26T06:59:34.013Z,91.50
2019-01-26T07:02:02.242Z,91.70
2019-01-26T07:04:37.925Z,91.80
2019-01-26T07:07:07.729Z,91.90
2019-01-26T07:09:35.968Z,92.00
2019-01-26T07:12:04.218Z,92.20
2019-01-26T07:14:32.459Z,92.10
2019-01-26T07:17:00.704Z,92.40
2019-01-26T07:19:28.948Z,92.80
2019-01-26T07:21:57.199Z,92.90
2019-01-26T07:24:25.430Z,93.00
2019-01-26T07:26:53.683Z,93.20
2019-01-26T07:29:21.920Z,93.20
2019-01-26T07:31:50.166Z,93.30
2019-01-26T07:34:18.408Z,93.20
2019-01-26T07:36:46.672Z,93.20
2019-01-26T07:39:14.931Z,93.20
2019-01-26T07:41:43.164Z,93.10
2019-01-26T07:44:11.435Z,93.00
2019-01-26T07:46:39.661Z,92.80
2019-01-26T07:49:09.392Z,93.00
2019-01-26T07:51:37.841Z,92.80
2019-01-26T07:54:06.072Z,92.80
2019-01-26T07:56:34.325Z,92.60
2019-01-26T07:59:02.553Z,92.30
2019-01-26T08:01:30.825Z,92.20
2019-01-26T08:03:59.061Z,92.00
2019-01-26T08:06:27.307Z,92.00
2019-01-26T08:08:55.565Z,92.00
2019-01-26T08:11:23.812Z,92.00
2019-01-26T08:13:52.055Z,91.90
2019-01-26T08:16:20.339Z,91.80
2019-01-26T08:18:48.569Z,92.10
2019-01-26T08:21:16.815Z,91.60
2019-01-26T08:23:45.147Z,91.40
2019-01-26T08:26:13.383Z,91.50
2019-01-26T08:28:41.634Z,91.40
2019-01-26T08:31:09.871Z,91.60
2019-01-26T08:33:38.134Z,91.70
2019-01-26T08:36:06.361Z,91.70
2019-01-26T08:38:34.621Z,91.40
2019-01-26T08:41:02.851Z,91.40
2019-01-26T08:43:31.111Z,91.20
2019-01-26T08:46:00.230Z,91.10
2019-01-26T08:48:31.349Z,91.10
2019-01-26T08:50:58.445Z,91.10
2019-01-26T08:53:26.691Z,91.10
2019-01-26T08:55:54.951Z,91.30
2019-01-26T08:58:23.188Z,91.10
2019-01-26T09:00:51.447Z,91.10
2019-01-26T09:03:30.492Z,91.20
2019-01-26T09:06:03.100Z,91.10
2019-01-26T09:08:31.330Z,91.00
2019-01-26T09:10:59.604Z,91.00
2019-01-26T09:13:27.847Z,91.00
2019-01-26T09:15:56.074Z,91.30
2019-01-26T09:18:24.351Z,91.40
2019-01-26T09:20:52.606Z,91.30
2019-01-26T09:23:20.843Z,91.30
2019-01-26T09:25:49.104Z,91.30
2019-01-26T09:28:17.352Z,91.00
2019-01-26T09:30:45.591Z,91.20
2019-01-26T09:33:13.837Z,91.10
2019-01-26T09:35:42.084Z,91.20
2019-01-26T09:38:10.334Z,91.10
2019-01-26T09:40:38.585Z,91.00
2019-01-26T09:43:06.897Z,91.20
2019-01-26T09:45:35.162Z,91.30
2019-01-26T09:48:03.404Z,91.20
2019-01-26T09:50:31.648Z,91.00
2019-01-26T09:52:59.902Z,91.30
2019-01-26T09:55:28.152Z,91.10
2019-01-26T09:57:56.381Z,91.30
2019-01-26T10:00:28.771Z,91.30
2019-01-26T10:02:57.895Z,91.20
2019-01-26T10:05:27.635Z,91.00
2019-01-26T10:07:56.182Z,90.90
2019-01-26T10:10:24.449Z,90.80
2019-01-26T10:12:52.784Z,90.80
2019-01-26T10:15:23.187Z,91.10
2019-01-26T10:17:51.452Z,91.00
2019-01-26T10:20:22.577Z,91.10
2019-01-26T10:22:50.829Z,91.00
2019-01-26T10:25:19.091Z,90.70
2019-01-26T10:27:47.407Z,90.70
2019-01-26T10:30:40.785Z,90.60
2019-01-26T10:33:09.013Z,90.60
2019-01-26T10:35:53.995Z,90.40
2019-01-26T10:38:22.389Z,90.10
2019-01-26T10:40:55.116Z,90.10
2019-01-26T10:43:27.958Z,90.00
2019-01-26T10:45:56.210Z,89.60
2019-01-26T10:48:24.447Z,88.90
2019-01-26T10:50:52.722Z,88.50
2019-01-26T10:53:20.949Z,88.30
2019-01-26T10:55:49.192Z,87.60
2019-01-26T10:58:17.449Z,88.00
2019-01-26T11:00:45.710Z,88.10
2019-01-26T11:03:13.944Z,88.10
2019-01-26T11:05:42.203Z,88.40
2019-01-26T11:08:10.444Z,87.70
2019-01-26T11:10:38.725Z,87.50
2019-01-26T11:13:06.983Z,87.60
2019-01-26T11:15:35.212Z,87.50
2019-01-26T11:18:03.927Z,86.80
2019-01-26T11:20:32.161Z,86.20
2019-01-26T11:23:00.434Z,86.20
2019-01-26T11:25:28.680Z,86.20
2019-01-26T11:27:56.910Z,86.20
2019-01-26T11:30:26.815Z,86.10
2019-01-26T11:32:55.071Z,85.80
2019-01-26T11:35:24.960Z,86.10
2019-01-26T11:37:53.207Z,85.40
2019-01-26T11:40:24.441Z,85.00
2019-01-26T11:42:52.699Z,85.80
2019-01-26T11:45:28.765Z,85.70
2019-01-26T11:47:58.771Z,85.40
2019-01-26T11:50:28.716Z,85.40
2019-01-26T11:52:56.961Z,85.40
2019-01-26T11:55:26.851Z,86.30
2019-01-26T11:57:55.101Z,84.80
2019-01-26T12:00:27.931Z,85.30
2019-01-26T12:02:57.930Z,85.00
2019-01-26T12:05:27.826Z,84.80
2019-01-26T12:07:56.075Z,84.90
2019-01-26T12:10:24.319Z,84.20
2019-01-26T12:12:52.583Z,84.30
2019-01-26T12:15:20.817Z,84.30
2019-01-26T12:17:49.070Z,84.90
2019-01-26T12:20:17.576Z,85.50
2019-01-26T12:22:45.860Z,85.90
2019-01-26T12:25:14.090Z,85.80
2019-01-26T12:27:42.327Z,85.60
2019-01-26T12:30:15.267Z,85.20
2019-01-26T12:32:43.504Z,84.90
2019-01-26T12:35:13.836Z,85.50
2019-01-26T12:37:42.062Z,85.90
2019-01-26T12:40:12.723Z,85.80
2019-01-26T12:42:41.014Z,85.50
2019-01-26T12:45:12.891Z,85.10
2019-01-26T12:47:41.156Z,85.60
2019-01-26T12:50:11.420Z,85.40
2019-01-26T12:52:40.993Z,85.30
2019-01-26T12:55:12.292Z,85.80
2019-01-26T12:57:40.518Z,85.90
2019-01-26T13:00:17.921Z,85.60
2019-01-26T13:02:46.165Z,85.50
2019-01-26T13:05:14.398Z,85.90
2019-01-26T13:07:42.671Z,85.90
2019-01-26T13:10:14.481Z,86.00
2019-01-26T13:12:42.727Z,86.00
2019-01-26T13:15:15.192Z,86.00
2019-01-26T13:17:40.937Z,85.90
2019-01-26T13:20:12.718Z,85.70
2019-01-26T13:22:40.989Z,85.40
2019-01-26T13:25:12.066Z,84.90
2019-01-26T13:27:40.329Z,84.90
2019-01-26T13:30:17.301Z,85.50
2019-01-26T13:32:46.608Z,86.10
2019-01-26T13:35:15.237Z,86.10
2019-01-26T13:37:43.499Z,86.50
2019-01-26T13:40:21.111Z,86.70
2019-01-26T13:42:49.368Z,86.30
2019-01-26T13:45:17.612Z,86.10
2019-01-26T13:47:45.851Z,85.90
2019-01-26T13:50:14.113Z,85.70
2019-01-26T13:52:42.369Z,85.90
2019-01-26T13:55:16.044Z,85.30
2019-01-26T13:57:44.309Z,85.30
2019-01-26T14:00:30.310Z,85.60
2019-01-26T14:02:58.580Z,85.60
2019-01-26T14:05:26.844Z,85.60
2019-01-26T14:07:55.066Z,85.90
2019-01-26T14:10:24.568Z,86.00
2019-01-26T14:12:52.799Z,85.80
2019-01-26T14:15:22.291Z,85.70
2019-01-26T14:17:50.609Z,84.80
2019-01-26T14:20:27.764Z,84.20
2019-01-26T14:22:56.024Z,83.90
2019-01-26T14:25:24.794Z,84.10
2019-01-26T14:27:53.067Z,84.60
2019-01-26T14:30:27.291Z,84.90
2019-01-26T14:32:55.523Z,86.00
2019-01-26T14:35:23.867Z,86.00
2019-01-26T14:37:52.116Z,86.50
2019-01-26T14:40:20.381Z,86.50
2019-01-26T14:42:54.184Z,86.20
2019-01-26T14:45:18.830Z,86.20
2019-01-26T14:47:47.107Z,86.20
2019-01-26T14:50:16.704Z,86.00
2019-01-26T14:52:45.091Z,86.80
2019-01-26T14:55:21.792Z,86.20
2019-01-26T14:57:50.032Z,87.00
2019-01-26T15:00:23.865Z,87.00
2019-01-26T15:02:52.123Z,88.40
2019-01-26T15:05:20.374Z,89.20
2019-01-26T15:07:48.661Z,89.70
2019-01-26T15:10:16.908Z,89.80
2019-01-26T15:12:45.140Z,89.90
2019-01-26T15:15:18.862Z,89.50
2019-01-26T15:17:47.164Z,89.60
2019-01-26T15:20:18.315Z,89.70
2019-01-26T15:22:46.542Z,89.90
2019-01-26T15:25:14.781Z,89.90
2019-01-26T15:27:43.070Z,89.70
2019-01-26T15:30:20.417Z,89.70
2019-01-26T15:32:48.655Z,89.70
2019-01-26T15:35:16.918Z,89.70
2019-01-26T15:37:45.146Z,90.10
2019-01-26T15:40:13.796Z,90.00
2019-01-26T15:42:42.026Z,90.20
2019-01-26T15:45:13.661Z,90.40
2019-01-26T15:47:41.926Z,90.60
2019-01-26T15:50:13.176Z,90.80
2019-01-26T15:52:41.662Z,91.60
2019-01-26T15:55:13.230Z,92.10
2019-01-26T15:57:41.496Z,92.00
2019-01-26T16:00:15.696Z,91.90
2019-01-26T16:02:43.929Z,92.00
2019-01-26T16:05:12.192Z,91.90
2019-01-26T16:07:40.440Z,92.10
2019-01-26T16:10:12.191Z,91.90
2019-01-26T16:12:40.421Z,91.90
2019-01-26T16:15:11.885Z,91.90
2019-01-26T16:17:40.125Z,91.90
2019-01-26T16:20:11.379Z,91.90
2019-01-26T16:22:39.605Z,91.60
2019-01-26T16:25:08.997Z,91.60
2019-01-26T16:27:37.249Z,91.60
2019-01-26T16:30:08.756Z,91.70
2019-01-26T16:32:37.021Z,92.10
2019-01-26T16:35:08.550Z,91.80
2019-01-26T16:37:36.820Z,91.80
2019-01-26T16:40:14.075Z,91.90
2019-01-26T16:42:42.321Z,91.90
2019-01-26T16:45:13.654Z,91.90
2019-01-26T16:47:41.914Z,92.00
2019-01-26T16:50:16.093Z,91.80
2019-01-26T16:52:44.345Z,91.90
2019-01-26T16:55:13.823Z,91.50
2019-01-26T16:57:42.087Z,91.10
2019-01-26T17:00:25.269Z,91.10
2019-01-26T17:02:53.548Z,90.80
2019-01-26T17:05:25.771Z,90.60
2019-01-26T17:07:51.738Z,90.20
2019-01-26T17:10:21.050Z,90.10
2019-01-26T17:12:49.311Z,90.40
2019-01-26T17:15:17.557Z,90.30
2019-01-26T17:17:45.808Z,90.20
2019-01-26T17:20:19.731Z,90.30
2019-01-26T17:22:47.957Z,90.00
2019-01-26T17:25:16.192Z,89.60
2019-01-26T17:27:44.437Z,89.50
2019-01-26T17:30:15.695Z,89.00
2019-01-26T17:32:43.952Z,88.90
2019-01-26T17:35:12.197Z,88.70
2019-01-26T17:37:40.477Z,88.90
2019-01-26T17:40:17.577Z,87.90
2019-01-26T17:42:45.850Z,87.40
2019-01-26T17:45:15.715Z,87.10
2019-01-26T17:47:43.987Z,86.50
2019-01-26T17:50:14.849Z,86.30
2019-01-26T17:52:43.100Z,85.80
2019-01-26T17:55:11.698Z,85.90
2019-01-26T17:57:40.297Z,86.00
2019-01-26T18:00:15.148Z,86.70
2019-01-26T18:02:43.394Z,86.90
2019-01-26T18:05:11.825Z,86.90
2019-01-26T18:07:40.063Z,86.60
2019-01-26T18:10:11.794Z,86.50
2019-01-26T18:12:40.051Z,86.60
2019-01-26T18:15:13.579Z,86.50
2019-01-26T18:17:41.827Z,86.50
2019-01-26T18:20:16.204Z,86.40
2019-01-26T18:22:44.437Z,86.20
2019-01-26T18:25:12.934Z,86.30
2019-01-26T18:27:41.195Z,86.30
2019-01-26T18:30:15.376Z,86.10
2019-01-26T18:32:43.636Z,86.30
2019-01-26T18:35:13.417Z,86.40
2019-01-26T18:37:41.738Z,86.80
2019-01-26T18:40:16.103Z,86.60
2019-01-26T18:42:44.346Z,86.50
2019-01-26T18:45:15.457Z,87.20
2019-01-26T18:47:43.680Z,87.30
2019-01-26T18:50:17.935Z,87.10
2019-01-26T18:52:46.185Z,87.50
2019-01-26T18:55:14.439Z,87.40
2019-01-26T18:57:42.673Z,87.90
2019-01-26T19:00:14.182Z,88.30
2019-01-26T19:02:42.892Z,87.70
2019-01-26T19:05:14.216Z,87.60
2019-01-26T19:07:42.469Z,88.00
2019-01-26T19:10:12.262Z,87.30
2019-01-26T19:12:40.526Z,87.70
2019-01-26T19:15:18.485Z,87.50
2019-01-26T19:17:46.731Z,87.70
2019-01-26T19:20:15.723Z,86.30
2019-01-26T19:22:43.955Z,86.60
2019-01-26T19:25:16.780Z,86.60
2019-01-26T19:27:45.001Z,86.10
2019-01-26T19:30:16.398Z,85.90
2019-01-26T19:32:44.640Z,86.00
2019-01-26T19:35:12.879Z,85.80
2019-01-26T19:37:41.142Z,85.80
2019-01-26T19:40:18.737Z,86.00
2019-01-26T19:42:47.116Z,85.40
2019-01-26T19:45:18.359Z,85.10
2019-01-26T19:47:46.609Z,85.80
2019-01-26T19:50:19.530Z,85.90
2019-01-26T19:52:47.796Z,85.90
2019-01-26T19:55:17.283Z,86.10
2019-01-26T19:57:45.530Z,86.40
2019-01-26T20:00:13.778Z,86.40
2019-01-26T20:02:42.008Z,85.70
2019-01-26T20:05:22.029Z,86.30
2019-01-26T20:07:50.269Z,85.80
2019-01-26T20:10:18.895Z,85.70
2019-01-26T20:12:47.141Z,85.60
2019-01-26T20:15:18.650Z,85.40
2019-01-26T20:17:46.891Z,85.10
2019-01-26T20:20:20.874Z,85.10
2019-01-26T20:22:49.111Z,85.30
2019-01-26T20:25:17.399Z,85.60
2019-01-26T20:27:45.679Z,85.10
2019-01-26T20:30:18.950Z,84.90
2019-01-26T20:32:47.201Z,85.00
2019-01-26T20:35:15.449Z,84.80
2019-01-26T20:37:43.708Z,85.80
2019-01-26T20:40:16.871Z,85.00
2019-01-26T20:42:45.129Z,85.30
2019-01-26T20:45:29.725Z,84.80
2019-01-26T20:47:57.968Z,85.30
2019-01-26T20:50:26.212Z,85.30
2019-01-26T20:52:54.462Z,85.10
2019-01-26T20:55:22.716Z,85.20
2019-01-26T20:57:50.960Z,85.30
2019-01-26T21:00:22.225Z,84.80
2019-01-26T21:02:50.468Z,84.90
2019-01-26T21:05:18.745Z,84.70
2019-01-26T21:07:47.003Z,84.70
2019-01-26T21:10:20.533Z,85.00
2019-01-26T21:12:49.628Z,84.80
2019-01-26T21:15:17.905Z,85.20
2019-01-26T21:17:46.158Z,84.70
2019-01-26T21:20:16.995Z,84.70
2019-01-26T21:22:45.274Z,84.40
2019-01-26T21:25:13.835Z,84.20
2019-01-26T21:27:42.066Z,83.90
2019-01-26T21:30:13.474Z,83.90
2019-01-26T21:32:41.796Z,84.00
2019-01-26T21:35:10.739Z,83.70
2019-01-26T21:37:38.987Z,84.40
2019-01-26T21:40:22.205Z,84.20
2019-01-26T21:42:50.442Z,84.40
2019-01-26T21:45:18.704Z,84.00
2019-01-26T21:47:46.974Z,83.20
2019-01-26T21:50:23.772Z,84.00
2019-01-26T21:52:52.021Z,84.00
2019-01-26T21:55:20.290Z,84.00
2019-01-26T21:57:48.524Z,84.30
2019-01-26T22:00:19.688Z,84.60
2019-01-26T22:02:51.205Z,84.50
2019-01-26T22:05:19.458Z,84.50
2019-01-26T22:07:47.736Z,84.60
2019-01-26T22:10:21.278Z,85.10
2019-01-26T22:12:49.782Z,84.80
2019-01-26T22:15:19.828Z,84.60
2019-01-26T22:17:48.053Z,84.50
2019-01-26T22:20:18.542Z,84.20
2019-01-26T22:22:47.644Z,84.60
2019-01-26T22:25:15.891Z,84.50
2019-01-26T22:27:44.152Z,84.50
2019-01-26T22:30:15.658Z,84.50
2019-01-26T22:32:43.886Z,83.80
2019-01-26T22:35:12.149Z,83.80
2019-01-26T22:37:40.400Z,83.20
2019-01-26T22:40:11.842Z,82.60
2019-01-26T22:42:40.099Z,82.30
2019-01-26T22:45:10.323Z,81.80
2019-01-26T22:47:38.551Z,82.00
2019-01-26T22:50:10.052Z,81.80
2019-01-26T22:52:38.330Z,81.50
2019-01-26T22:55:09.641Z,81.50
2019-01-26T22:57:37.911Z,81.50
2019-01-26T23:00:29.202Z,81.60
2019-01-26T23:02:57.475Z,81.30
2019-01-26T23:05:53.275Z,81.00
2019-01-26T23:08:24.855Z,81.20
2019-01-26T23:11:01.945Z,81.20
2019-01-26T23:13:31.813Z,81.10
2019-01-26T23:16:20.211Z,81.30
2019-01-26T23:18:57.465Z,81.60
2019-01-26T23:21:31.553Z,81.90
2019-01-26T23:24:15.322Z,82.30
2019-01-26T23:27:04.870Z,82.40
2019-01-26T23:29:57.586Z,82.70
2019-01-26T23:32:25.838Z,82.70
2019-01-26T23:34:54.083Z,82.30
2019-01-26T23:37:22.348Z,81.90
2019-01-26T23:39:50.591Z,81.50
2019-01-26T23:42:18.843Z,81.80
2019-01-26T23:44:47.071Z,81.70
2019-01-26T23:47:15.323Z,81.10
2019-01-26T23:49:43.578Z,81.80
2019-01-26T23:52:11.834Z,81.90
2019-01-26T23:54:40.090Z,82.00
2019-01-26T23:57:08.355Z,82.00
2019-01-26T23:59:36.599Z,82.30
